createdAt,value
2017-08-16T00:01:30.838Z,20.26
2017-08-16T00:04:05.485Z,20.25
2017-08-16T00:06:41.225Z,20.22
2017-08-16T00:09:15.855Z,20.13
2017-08-16T00:11:50.838Z,20.12
2017-08-16T00:14:25.292Z,20.14
2017-08-16T00:16:59.856Z,20.12
2017-08-16T00:19:34.608Z,20.12
2017-08-16T00:22:09.376Z,20.10
2017-08-16T00:24:44.108Z,20.09
2017-08-16T00:27:19.728Z,20.11
2017-08-16T00:29:55.349Z,20.12
2017-08-16T00:32:31.064Z,20.09
2017-08-16T00:35:06.738Z,20.05
2017-08-16T00:37:41.047Z,20.05
2017-08-16T00:40:15.904Z,20.05
2017-08-16T00:42:50.594Z,20.06
2017-08-16T00:45:25.332Z,20.06
2017-08-16T00:47:59.959Z,19.98
2017-08-16T00:50:34.285Z,19.92
2017-08-16T00:53:08.948Z,19.95
2017-08-16T00:55:44.042Z,19.91
2017-08-16T00:58:18.578Z,19.86
2017-08-16T01:00:53.762Z,19.85
2017-08-16T01:03:29.870Z,19.87
2017-08-16T01:06:04.482Z,19.88
2017-08-16T01:08:39.267Z,19.91
2017-08-16T01:11:14.051Z,19.88
2017-08-16T01:13:48.772Z,19.85
2017-08-16T01:16:23.530Z,19.87
2017-08-16T01:18:58.409Z,19.88
2017-08-16T01:21:33.138Z,19.88
2017-08-16T01:24:07.916Z,19.88
2017-08-16T01:26:42.747Z,19.88
2017-08-16T01:29:17.372Z,19.88
2017-08-16T01:31:52.111Z,19.88
2017-08-16T01:34:27.051Z,19.88
2017-08-16T01:37:01.830Z,19.89
2017-08-16T01:39:36.646Z,19.85
2017-08-16T01:42:11.391Z,19.74
2017-08-16T01:44:46.203Z,19.70
2017-08-16T01:47:20.948Z,19.64
2017-08-16T01:49:55.726Z,19.57
2017-08-16T01:52:30.462Z,19.61
2017-08-16T01:55:05.263Z,19.56
2017-08-16T01:57:39.995Z,19.55
2017-08-16T02:00:14.815Z,19.54
2017-08-16T02:02:49.583Z,19.44
2017-08-16T02:05:24.223Z,19.40
2017-08-16T02:07:58.950Z,19.35
2017-08-16T02:10:33.533Z,19.35
2017-08-16T02:13:08.239Z,19.37
2017-08-16T02:15:42.964Z,19.36
2017-08-16T02:18:17.818Z,19.35
2017-08-16T02:20:53.482Z,19.34
2017-08-16T02:23:28.170Z,19.31
2017-08-16T02:26:03.179Z,19.20
2017-08-16T02:28:37.683Z,19.12
2017-08-16T02:31:12.319Z,19.10
2017-08-16T02:33:47.839Z,19.12
2017-08-16T02:36:22.539Z,19.10
2017-08-16T02:38:58.195Z,19.09
2017-08-16T02:41:32.739Z,19.10
2017-08-16T02:44:07.355Z,19.02
2017-08-16T02:46:42.091Z,19.00
2017-08-16T02:49:17.738Z,19.00
2017-08-16T02:51:52.015Z,19.00
2017-08-16T02:54:26.967Z,18.89
2017-08-16T02:57:01.264Z,18.83
2017-08-16T02:59:36.109Z,18.83
2017-08-16T03:02:10.838Z,18.83
2017-08-16T03:04:45.783Z,18.80
2017-08-16T03:07:20.135Z,18.81
2017-08-16T03:09:54.947Z,18.80
2017-08-16T03:12:29.634Z,18.78
2017-08-16T03:15:04.252Z,18.79
2017-08-16T03:17:38.842Z,18.71
2017-08-16T03:20:13.604Z,18.72
2017-08-16T03:22:48.354Z,18.69
2017-08-16T03:25:22.935Z,18.70
2017-08-16T03:27:57.615Z,18.67
2017-08-16T03:30:32.394Z,18.66
2017-08-16T03:33:07.966Z,18.64
2017-08-16T03:35:42.431Z,18.69
2017-08-16T03:38:17.011Z,18.73
2017-08-16T03:40:51.635Z,18.70
2017-08-16T03:43:26.279Z,18.77
2017-08-16T03:46:00.996Z,18.77
2017-08-16T03:48:35.596Z,18.76
2017-08-16T03:51:10.303Z,18.71
2017-08-16T03:53:44.919Z,18.70
2017-08-16T03:56:19.411Z,18.79
2017-08-16T03:58:54.156Z,18.86
2017-08-16T04:01:28.863Z,18.79
2017-08-16T04:04:03.431Z,18.75
2017-08-16T04:06:37.942Z,18.69
2017-08-16T04:09:12.659Z,18.68
2017-08-16T04:11:47.381Z,18.70
2017-08-16T04:14:22.103Z,18.74
2017-08-16T04:16:56.735Z,18.74
2017-08-16T04:19:31.380Z,18.74
2017-08-16T04:22:06.191Z,18.77
2017-08-16T04:24:41.140Z,18.72
2017-08-16T04:27:15.351Z,18.71
2017-08-16T04:29:50.079Z,18.66
2017-08-16T04:32:24.774Z,18.58
2017-08-16T04:34:59.350Z,18.52
2017-08-16T04:37:35.064Z,18.59
2017-08-16T04:40:09.686Z,18.57
2017-08-16T04:42:45.339Z,18.52
2017-08-16T04:45:19.966Z,18.50
2017-08-16T04:47:54.632Z,18.42
2017-08-16T04:50:29.507Z,18.34
2017-08-16T04:53:05.179Z,18.31
2017-08-16T04:55:39.761Z,18.28
2017-08-16T04:58:14.445Z,18.29
2017-08-16T05:00:49.069Z,18.30
2017-08-16T05:03:23.786Z,18.32
2017-08-16T05:05:58.468Z,18.36
2017-08-16T05:08:33.154Z,18.45
2017-08-16T05:11:07.870Z,18.38
2017-08-16T05:13:42.541Z,18.39
2017-08-16T05:16:17.236Z,18.41
2017-08-16T05:18:52.047Z,18.40
2017-08-16T05:21:26.686Z,18.34
2017-08-16T05:24:01.499Z,18.41
2017-08-16T05:26:36.259Z,18.59
2017-08-16T05:29:10.828Z,18.83
2017-08-16T05:31:45.403Z,18.92
2017-08-16T05:34:19.964Z,19.03
2017-08-16T05:36:54.743Z,18.90
2017-08-16T05:39:29.367Z,18.72
2017-08-16T05:42:04.110Z,18.67
2017-08-16T05:44:38.732Z,18.68
2017-08-16T05:47:13.403Z,18.76
2017-08-16T05:49:48.006Z,18.91
2017-08-16T05:52:23.232Z,18.94
2017-08-16T05:54:58.167Z,19.07
2017-08-16T05:57:32.807Z,19.23
2017-08-16T06:00:07.524Z,18.99
2017-08-16T06:02:42.288Z,19.03
2017-08-16T06:05:17.054Z,19.08
2017-08-16T06:07:51.664Z,18.89
2017-08-16T06:10:27.463Z,18.80
2017-08-16T06:13:02.128Z,18.88
2017-08-16T06:15:36.870Z,19.22
2017-08-16T06:18:11.564Z,19.24
2017-08-16T06:20:46.334Z,19.35
2017-08-16T06:23:21.138Z,19.35
2017-08-16T06:25:56.560Z,19.46
2017-08-16T06:28:31.296Z,19.54
2017-08-16T06:31:06.965Z,19.50
2017-08-16T06:33:41.652Z,19.48
2017-08-16T06:36:16.092Z,19.62
2017-08-16T06:38:51.143Z,19.66
2017-08-16T06:41:25.784Z,19.76
2017-08-16T06:44:00.388Z,19.85
2017-08-16T06:46:35.124Z,19.95
2017-08-16T06:49:09.950Z,19.88
2017-08-16T06:51:44.707Z,19.77
2017-08-16T06:54:19.433Z,19.72
2017-08-16T06:56:54.250Z,19.85
2017-08-16T06:59:28.771Z,19.88
2017-08-16T07:02:03.578Z,19.83
2017-08-16T07:04:38.219Z,19.79
2017-08-16T07:07:12.882Z,19.86
2017-08-16T07:09:47.576Z,19.93
2017-08-16T07:12:22.371Z,20.00
2017-08-16T07:14:57.254Z,20.15
2017-08-16T07:17:32.025Z,20.27
2017-08-16T07:20:06.783Z,20.25
2017-08-16T07:22:42.456Z,20.22
2017-08-16T07:25:17.175Z,20.27
2017-08-16T07:27:51.923Z,20.17
2017-08-16T07:30:26.675Z,20.20
2017-08-16T07:33:01.398Z,20.29
2017-08-16T07:35:37.207Z,20.39
2017-08-16T07:38:11.968Z,20.51
2017-08-16T07:40:47.660Z,20.66
2017-08-16T07:43:22.472Z,20.77
2017-08-16T07:45:57.274Z,20.98
2017-08-16T07:48:32.124Z,21.31
2017-08-16T07:51:06.930Z,21.27
2017-08-16T07:53:41.726Z,21.57
2017-08-16T07:56:16.467Z,21.93
2017-08-16T07:58:51.183Z,21.87
2017-08-16T08:01:25.946Z,21.81
2017-08-16T08:04:00.676Z,21.73
2017-08-16T08:06:35.484Z,21.79
2017-08-16T08:09:10.372Z,21.55
2017-08-16T08:11:46.187Z,21.43
2017-08-16T08:14:21.039Z,21.77
2017-08-16T08:16:55.742Z,22.03
2017-08-16T08:19:30.515Z,22.33
2017-08-16T08:22:05.579Z,22.67
2017-08-16T08:24:40.942Z,22.96
2017-08-16T08:27:16.694Z,22.94
2017-08-16T08:29:51.427Z,23.11
2017-08-16T08:32:26.387Z,23.27
2017-08-16T08:35:02.230Z,23.37
2017-08-16T08:37:36.980Z,23.57
2017-08-16T08:40:11.817Z,23.51
2017-08-16T08:42:46.324Z,23.46
2017-08-16T08:45:21.047Z,23.09
2017-08-16T08:47:55.507Z,23.23
2017-08-16T08:50:30.379Z,23.81
2017-08-16T08:53:05.115Z,24.36
2017-08-16T08:55:39.903Z,24.64
2017-08-16T08:58:14.675Z,24.40
2017-08-16T09:00:50.506Z,24.35
2017-08-16T09:03:24.830Z,24.76
2017-08-16T09:05:59.605Z,24.72
2017-08-16T09:08:34.415Z,24.63
2017-08-16T09:11:09.193Z,24.76
2017-08-16T09:13:44.967Z,24.59
2017-08-16T09:16:19.698Z,24.13
2017-08-16T09:18:54.431Z,24.17
2017-08-16T09:21:29.052Z,24.61
2017-08-16T09:24:03.835Z,25.02
2017-08-16T09:26:38.656Z,25.10
2017-08-16T09:29:13.386Z,25.38
2017-08-16T09:31:48.090Z,25.87
2017-08-16T09:34:23.863Z,26.21
2017-08-16T09:36:59.719Z,26.48
2017-08-16T09:39:34.463Z,26.03
2017-08-16T09:42:09.523Z,25.22
2017-08-16T09:44:44.011Z,24.84
2017-08-16T09:47:18.731Z,25.10
2017-08-16T09:49:54.576Z,25.56
2017-08-16T09:52:30.347Z,26.09
2017-08-16T09:55:05.128Z,26.50
2017-08-16T09:57:39.931Z,26.92
2017-08-16T10:00:14.707Z,27.26
2017-08-16T10:02:49.507Z,27.36
2017-08-16T10:05:24.167Z,27.40
2017-08-16T10:07:58.890Z,27.56
2017-08-16T10:10:33.647Z,27.83
2017-08-16T10:13:09.383Z,28.28
2017-08-16T10:15:44.050Z,28.38
2017-08-16T10:18:18.692Z,27.93
2017-08-16T10:20:53.196Z,27.68
2017-08-16T10:23:27.936Z,27.70
2017-08-16T10:26:03.531Z,28.18
2017-08-16T10:28:38.526Z,28.53
2017-08-16T10:31:13.023Z,28.68
2017-08-16T10:33:47.738Z,28.74
2017-08-16T10:36:22.464Z,28.80
2017-08-16T10:38:57.155Z,28.50
2017-08-16T10:41:32.938Z,28.64
2017-08-16T10:44:07.550Z,28.53
2017-08-16T10:46:42.319Z,28.48
2017-08-16T10:49:16.972Z,28.30
2017-08-16T10:51:51.954Z,28.42
2017-08-16T10:54:26.605Z,29.02
2017-08-16T10:57:02.279Z,29.58
2017-08-16T10:59:37.984Z,29.59
2017-08-16T11:02:12.682Z,29.96
2017-08-16T11:04:48.483Z,30.35
2017-08-16T11:07:23.142Z,30.61
2017-08-16T11:09:57.827Z,30.81
2017-08-16T11:12:32.942Z,30.98
2017-08-16T11:15:08.298Z,31.10
2017-08-16T11:17:42.910Z,30.77
2017-08-16T11:20:17.659Z,29.96
2017-08-16T11:22:52.399Z,29.98
2017-08-16T11:25:27.366Z,30.29
2017-08-16T11:28:01.751Z,30.57
2017-08-16T11:30:36.495Z,30.70
2017-08-16T11:33:11.212Z,30.97
2017-08-16T11:35:46.028Z,31.13
2017-08-16T11:38:20.747Z,31.00
2017-08-16T11:40:55.416Z,30.84
2017-08-16T11:43:30.398Z,31.09
2017-08-16T11:46:05.024Z,31.37
2017-08-16T11:48:39.859Z,31.33
2017-08-16T11:51:14.648Z,30.88
2017-08-16T11:53:49.419Z,30.80
2017-08-16T11:56:24.047Z,30.54
2017-08-16T11:58:58.879Z,30.27
2017-08-16T12:01:33.624Z,30.32
2017-08-16T12:04:08.532Z,30.49
2017-08-16T12:06:43.074Z,30.74
2017-08-16T12:09:18.782Z,30.78
2017-08-16T12:11:53.579Z,31.12
2017-08-16T12:14:28.298Z,31.20
2017-08-16T12:17:02.891Z,31.54
2017-08-16T12:19:37.632Z,31.39
2017-08-16T12:22:12.457Z,31.12
2017-08-16T12:24:47.302Z,30.68
2017-08-16T12:27:22.235Z,30.73
2017-08-16T12:29:56.991Z,30.61
2017-08-16T12:45:31.594Z,30.86
2017-08-16T12:48:06.100Z,29.78
2017-08-16T12:50:40.834Z,29.44
2017-08-16T12:53:15.550Z,29.66
2017-08-16T12:55:50.383Z,29.78
2017-08-16T12:58:25.012Z,30.18
2017-08-16T13:00:59.679Z,30.40
2017-08-16T13:03:34.464Z,30.50
2017-08-16T13:06:08.984Z,30.01
2017-08-16T13:08:43.736Z,29.92
2017-08-16T13:11:18.500Z,30.25
2017-08-16T13:13:53.119Z,30.13
2017-08-16T13:16:27.962Z,30.46
2017-08-16T13:19:02.646Z,30.63
2017-08-16T13:21:37.508Z,30.68
2017-08-16T13:24:12.280Z,30.82
2017-08-16T13:26:46.883Z,30.95
2017-08-16T13:29:21.631Z,31.06
2017-08-16T13:31:56.343Z,31.37
2017-08-16T13:34:31.086Z,31.74
2017-08-16T13:37:05.824Z,31.76
2017-08-16T13:39:40.572Z,31.40
2017-08-16T13:42:14.971Z,31.10
2017-08-16T13:44:49.974Z,30.78
2017-08-16T13:47:24.860Z,30.78
2017-08-16T13:50:00.706Z,30.81
2017-08-16T13:52:35.003Z,30.62
2017-08-16T13:55:10.251Z,30.57
2017-08-16T13:57:46.122Z,30.39
2017-08-16T14:00:20.976Z,30.22
2017-08-16T14:02:55.611Z,30.30
2017-08-16T14:05:30.511Z,30.51
2017-08-16T14:08:05.247Z,30.76
2017-08-16T14:10:39.890Z,30.63
2017-08-16T14:13:14.635Z,30.39
2017-08-16T14:15:50.384Z,30.37
2017-08-16T14:18:25.101Z,29.99
2017-08-16T14:20:59.974Z,29.55
2017-08-16T14:23:34.748Z,29.54
2017-08-16T14:26:09.579Z,29.66
2017-08-16T14:28:44.399Z,29.72
2017-08-16T14:31:19.111Z,29.46
2017-08-16T14:33:53.911Z,29.41
2017-08-16T14:36:28.804Z,29.49
2017-08-16T14:39:03.079Z,29.29
2017-08-16T14:41:37.975Z,29.60
2017-08-16T14:44:12.695Z,29.57
2017-08-16T14:46:47.183Z,29.43
2017-08-16T14:49:22.055Z,29.11
2017-08-16T14:51:56.871Z,28.51
2017-08-16T14:54:31.034Z,28.60
2017-08-16T14:57:07.140Z,28.71
2017-08-16T14:59:42.062Z,28.63
2017-08-16T15:02:16.868Z,28.36
2017-08-16T15:04:52.451Z,28.52
2017-08-16T15:07:27.858Z,28.82
2017-08-16T15:10:02.962Z,28.94
2017-08-16T15:12:38.699Z,28.56
2017-08-16T15:15:13.227Z,28.39
2017-08-16T15:17:47.838Z,28.63
2017-08-16T15:20:23.799Z,28.49
2017-08-16T15:22:58.452Z,28.54
2017-08-16T15:25:33.182Z,28.60
2017-08-16T15:28:07.715Z,28.52
2017-08-16T15:30:42.439Z,28.45
2017-08-16T15:33:17.180Z,28.47
2017-08-16T15:35:51.876Z,28.34
2017-08-16T15:38:26.637Z,28.41
2017-08-16T15:41:01.308Z,28.64
2017-08-16T15:43:37.191Z,28.56
2017-08-16T15:46:12.120Z,28.37
2017-08-16T15:48:46.930Z,28.20
2017-08-16T15:51:21.647Z,28.02
2017-08-16T15:53:56.323Z,27.95
2017-08-16T15:56:30.926Z,27.96
2017-08-16T15:59:05.687Z,27.81
2017-08-16T16:01:40.350Z,27.79
2017-08-16T16:04:15.170Z,27.91
2017-08-16T16:06:50.772Z,27.99
2017-08-16T16:09:25.443Z,27.98
2017-08-16T16:11:59.728Z,27.98
2017-08-16T16:14:34.739Z,27.91
2017-08-16T16:17:10.535Z,27.79
2017-08-16T16:19:45.191Z,27.81
2017-08-16T16:22:20.067Z,27.89
2017-08-16T16:24:55.420Z,27.84
2017-08-16T16:27:30.200Z,27.88
2017-08-16T16:30:04.846Z,27.86
2017-08-16T16:32:40.604Z,27.88
2017-08-16T16:35:16.198Z,27.74
2017-08-16T16:37:50.835Z,27.61
2017-08-16T16:40:25.711Z,27.38
2017-08-16T16:43:00.418Z,27.48
2017-08-16T16:45:36.044Z,27.53
2017-08-16T16:48:10.384Z,27.59
2017-08-16T16:50:45.552Z,27.63
2017-08-16T16:53:20.311Z,27.57
2017-08-16T16:55:55.123Z,27.56
2017-08-16T16:58:29.662Z,27.53
2017-08-16T17:01:04.392Z,27.49
2017-08-16T17:03:40.030Z,27.31
2017-08-16T17:06:15.643Z,27.23
2017-08-16T17:08:50.331Z,27.15
2017-08-16T17:11:25.809Z,27.13
2017-08-16T17:14:01.629Z,27.04
2017-08-16T17:16:36.463Z,26.91
2017-08-16T17:19:11.239Z,26.81
2017-08-16T17:21:45.943Z,26.62
2017-08-16T17:24:20.709Z,26.64
2017-08-16T17:26:55.315Z,26.68
2017-08-16T17:29:30.054Z,26.70
2017-08-16T17:32:04.779Z,26.71
2017-08-16T17:34:39.291Z,26.65
2017-08-16T17:37:14.074Z,26.57
2017-08-16T17:39:49.698Z,26.45
2017-08-16T17:42:24.431Z,26.37
2017-08-16T17:44:59.184Z,26.37
2017-08-16T17:47:33.895Z,26.37
2017-08-16T17:50:08.548Z,26.41
2017-08-16T17:52:43.166Z,26.41
2017-08-16T17:55:17.814Z,26.25
2017-08-16T17:57:52.424Z,26.10
2017-08-16T18:00:27.002Z,26.06
2017-08-16T18:03:01.642Z,25.90
2017-08-16T18:05:36.239Z,25.69
2017-08-16T18:08:11.046Z,25.49
2017-08-16T18:10:45.748Z,25.32
2017-08-16T18:13:20.350Z,25.12
2017-08-16T18:15:54.955Z,25.04
2017-08-16T18:18:29.724Z,24.97
2017-08-16T18:21:04.336Z,24.89
2017-08-16T18:23:38.952Z,24.79
2017-08-16T18:26:13.648Z,24.66
2017-08-16T18:28:48.248Z,24.68
2017-08-16T18:31:22.764Z,24.65
2017-08-16T18:33:57.499Z,24.58
2017-08-16T18:36:32.009Z,24.53
2017-08-16T18:39:06.892Z,24.38
2017-08-16T18:41:42.140Z,24.18
2017-08-16T18:44:17.632Z,24.18
2017-08-16T18:46:52.416Z,24.17
2017-08-16T18:49:27.051Z,24.11
2017-08-16T18:52:01.813Z,24.09
2017-08-16T18:54:36.336Z,24.11
2017-08-16T18:57:10.938Z,24.00
2017-08-16T18:59:45.484Z,23.98
2017-08-16T19:02:20.219Z,24.05
2017-08-16T19:04:54.911Z,24.03
2017-08-16T19:07:29.442Z,24.06
2017-08-16T19:10:03.831Z,24.15
2017-08-16T19:12:38.784Z,24.24
2017-08-16T19:15:13.238Z,24.25
2017-08-16T19:17:47.961Z,24.13
2017-08-16T19:20:22.642Z,24.10
2017-08-16T19:22:57.299Z,24.03
2017-08-16T19:25:31.727Z,24.10
2017-08-16T19:28:06.427Z,24.06
2017-08-16T19:30:42.137Z,23.83
2017-08-16T19:33:17.840Z,23.68
2017-08-16T19:35:52.487Z,23.56
2017-08-16T19:38:27.191Z,23.52
2017-08-16T19:41:02.742Z,23.48
2017-08-16T19:43:37.330Z,23.21
2017-08-16T19:46:13.008Z,22.92
2017-08-16T19:48:47.611Z,22.77
2017-08-16T19:51:22.268Z,22.65
2017-08-16T19:53:56.991Z,22.57
2017-08-16T19:56:32.860Z,22.34
2017-08-16T19:59:07.500Z,22.18
2017-08-16T20:01:42.159Z,22.07
2017-08-16T20:04:17.779Z,21.96
2017-08-16T20:06:52.486Z,21.90
2017-08-16T20:09:27.147Z,21.84
2017-08-16T20:12:01.837Z,21.75
2017-08-16T20:14:36.571Z,21.65
2017-08-16T20:17:11.199Z,21.62
2017-08-16T20:19:47.007Z,21.59
2017-08-16T20:22:22.002Z,21.64
2017-08-16T20:24:57.336Z,21.79
2017-08-16T20:27:31.755Z,21.88
2017-08-16T20:30:05.991Z,21.90
2017-08-16T20:32:41.935Z,21.83
2017-08-16T20:35:16.547Z,21.74
2017-08-16T20:37:51.255Z,21.68
2017-08-16T20:40:25.783Z,21.64
2017-08-16T20:43:00.284Z,21.62
2017-08-16T20:45:34.867Z,21.59
2017-08-16T20:48:09.384Z,21.61
2017-08-16T20:50:43.980Z,21.58
2017-08-16T20:53:18.771Z,21.56
2017-08-16T20:55:53.184Z,21.52
2017-08-16T20:58:27.801Z,21.37
2017-08-16T21:01:02.359Z,21.25
2017-08-16T21:03:36.964Z,21.12
2017-08-16T21:06:11.744Z,21.06
2017-08-16T21:08:46.367Z,21.09
2017-08-16T21:11:21.019Z,21.12
2017-08-16T21:13:55.752Z,21.08
2017-08-16T21:16:30.250Z,21.06
2017-08-16T21:19:05.862Z,21.01
2017-08-16T21:21:40.548Z,20.96
2017-08-16T21:24:16.179Z,20.92
2017-08-16T21:26:51.007Z,20.89
2017-08-16T21:29:25.646Z,20.86
2017-08-16T21:32:00.260Z,20.83
2017-08-16T21:34:34.809Z,20.82
2017-08-16T21:37:10.360Z,20.78
2017-08-16T21:39:44.804Z,20.70
2017-08-16T21:42:19.297Z,20.66
2017-08-16T21:44:53.935Z,20.64
2017-08-16T21:47:28.608Z,20.72
2017-08-16T21:50:03.180Z,20.74
2017-08-16T21:52:37.979Z,20.68
2017-08-16T21:55:12.671Z,20.68
2017-08-16T21:57:47.244Z,20.68
2017-08-16T22:00:21.434Z,20.65
2017-08-16T22:02:56.258Z,20.55
2017-08-16T22:05:31.972Z,20.49
2017-08-16T22:08:07.800Z,20.50
2017-08-16T22:10:42.451Z,20.53
2017-08-16T22:13:17.141Z,20.48
2017-08-16T22:15:51.867Z,20.41
2017-08-16T22:18:27.465Z,20.18
2017-08-16T22:21:03.203Z,20.12
2017-08-16T22:23:37.747Z,20.16
2017-08-16T22:26:12.463Z,20.06
2017-08-16T22:28:46.984Z,19.97
2017-08-16T22:31:21.723Z,20.01
2017-08-16T22:33:56.500Z,19.81
2017-08-16T22:36:31.171Z,19.74
2017-08-16T22:39:05.652Z,19.68
2017-08-16T22:41:40.526Z,19.61
2017-08-16T22:44:15.175Z,19.59
2017-08-16T22:46:49.963Z,19.55
2017-08-16T22:49:24.660Z,19.42
2017-08-16T22:52:00.368Z,19.40
2017-08-16T22:54:35.068Z,19.37
2017-08-16T22:57:09.822Z,19.33
2017-08-16T22:59:44.519Z,19.26
2017-08-16T23:02:19.189Z,19.27
2017-08-16T23:04:53.909Z,19.27
2017-08-16T23:07:28.668Z,19.21
2017-08-16T23:10:03.339Z,19.21
2017-08-16T23:12:38.014Z,19.25
2017-08-16T23:15:13.611Z,19.25
2017-08-16T23:17:48.255Z,19.22
2017-08-16T23:20:23.047Z,19.21
2017-08-16T23:22:57.699Z,19.07
2017-08-16T23:25:32.360Z,19.07
2017-08-16T23:28:07.025Z,19.05
2017-08-16T23:30:41.687Z,18.99
2017-08-16T23:33:16.411Z,18.99
2017-08-16T23:35:50.938Z,19.07
2017-08-16T23:38:25.712Z,19.10
2017-08-16T23:41:00.280Z,19.16
2017-08-16T23:43:35.028Z,19.18
2017-08-16T23:46:09.540Z,19.14
2017-08-16T23:48:45.307Z,19.09
2017-08-16T23:51:20.023Z,19.10
2017-08-16T23:53:54.674Z,19.00
2017-08-16T23:56:29.199Z,18.91
2017-08-16T23:59:04.756Z,18.90
